sensor_id;sensor_type;location;lat;lon;timestamp;temperature;humidity
15083;DHT22;7640;53.116;6.878;2022-09-30T00:01:38;10.00;99.90
15083;DHT22;7640;53.116;6.878;2022-09-30T00:04:08;9.50;99.90
15083;DHT22;7640;53.116;6.878;2022-09-30T00:06:40;9.50;99.90
15083;DHT22;7640;53.116;6.878;2022-09-30T00:09:08;9.50;99.90
15083;DHT22;7640;53.116;6.878;2022-09-30T00:11:37;9.40;99.90
15083;DHT22;7640;53.116;6.878;2022-09-30T00:14:07;9.40;99.90
15083;DHT22;7640;53.116;6.878;2022-09-30T00:16:40;9.40;99.90
15083;DHT22;7640;53.116;6.878;2022-09-30T00:19:10;9.40;99.90
15083;DHT22;7640;53.116;6.878;2022-09-30T00:21:38;9.40;99.90
15083;DHT22;7640;53.116;6.878;2022-09-30T00:24:07;9.40;99.90
15083;DHT22;7640;53.116;6.878;2022-09-30T00:26:35;9.40;99.90
15083;DHT22;7640;53.116;6.878;2022-09-30T00:29:04;9.40;99.90
15083;DHT22;7640;53.116;6.878;2022-09-30T00:31:34;9.40;99.90
15083;DHT22;7640;53.116;6.878;2022-09-30T00:34:03;9.40;99.90
15083;DHT22;7640;53.116;6.878;2022-09-30T00:36:37;9.40;99.90
15083;DHT22;7640;53.116;6.878;2022-09-30T00:39:11;9.40;99.90
15083;DHT22;7640;53.116;6.878;2022-09-30T00:41:40;9.40;99.90
15083;DHT22;7640;53.116;6.878;2022-09-30T00:44:47;9.40;99.90
15083;DHT22;7640;53.116;6.878;2022-09-30T00:47:37;9.30;99.90
15083;DHT22;7640;53.116;6.878;2022-09-30T00:50:20;9.30;99.90
15083;DHT22;7640;53.116;6.878;2022-09-30T00:52:54;9.20;99.90
15083;DHT22;7640;53.116;6.878;2022-09-30T00:55:33;9.20;99.90
15083;DHT22;7640;53.116;6.878;2022-09-30T00:58:17;9.50;99.90
15083;DHT22;7640;53.116;6.878;2022-09-30T01:00:50;9.10;99.90
15083;DHT22;7640;53.116;6.878;2022-09-30T01:03:21;9.10;99.90
15083;DHT22;7640;53.116;6.878;2022-09-30T01:05:50;9.10;99.90
15083;DHT22;7640;53.116;6.878;2022-09-30T01:08:20;9.10;99.90
15083;DHT22;7640;53.116;6.878;2022-09-30T01:10:48;9.10;99.90
15083;DHT22;7640;53.116;6.878;2022-09-30T01:13:17;8.60;99.90
15083;DHT22;7640;53.116;6.878;2022-09-30T01:15:58;9.20;99.90
15083;DHT22;7640;53.116;6.878;2022-09-30T01:18:46;9.20;99.90
15083;DHT22;7640;53.116;6.878;2022-09-30T01:21:44;9.20;99.90
15083;DHT22;7640;53.116;6.878;2022-09-30T01:25:01;9.20;99.90
15083;DHT22;7640;53.116;6.878;2022-09-30T01:27:51;9.20;99.90
15083;DHT22;7640;53.116;6.878;2022-09-30T01:30:47;9.20;99.90
15083;DHT22;7640;53.116;6.878;2022-09-30T01:33:31;9.20;99.90
15083;DHT22;7640;53.116;6.878;2022-09-30T01:36:18;9.20;99.90
15083;DHT22;7640;53.116;6.878;2022-09-30T01:39:00;9.20;99.90
15083;DHT22;7640;53.116;6.878;2022-09-30T01:41:41;9.20;99.90
15083;DHT22;7640;53.116;6.878;2022-09-30T01:44:14;9.20;99.90
15083;DHT22;7640;53.116;6.878;2022-09-30T01:46:50;9.10;99.90
15083;DHT22;7640;53.116;6.878;2022-09-30T01:49:28;9.10;99.90
15083;DHT22;7640;53.116;6.878;2022-09-30T01:52:03;9.10;99.90
15083;DHT22;7640;53.116;6.878;2022-09-30T01:54:38;9.10;99.90
15083;DHT22;7640;53.116;6.878;2022-09-30T01:57:13;9.10;99.90
15083;DHT22;7640;53.116;6.878;2022-09-30T01:59:49;9.10;99.90
15083;DHT22;7640;53.116;6.878;2022-09-30T02:02:23;9.00;99.90
15083;DHT22;7640;53.116;6.878;2022-09-30T02:04:56;9.00;99.90
15083;DHT22;7640;53.116;6.878;2022-09-30T02:07:30;9.00;99.90
15083;DHT22;7640;53.116;6.878;2022-09-30T02:10:04;9.00;99.90
15083;DHT22;7640;53.116;6.878;2022-09-30T02:12:40;8.90;99.90
15083;DHT22;7640;53.116;6.878;2022-09-30T02:15:16;8.90;99.90
15083;DHT22;7640;53.116;6.878;2022-09-30T02:17:52;8.80;99.90
15083;DHT22;7640;53.116;6.878;2022-09-30T02:20:25;8.80;99.90
15083;DHT22;7640;53.116;6.878;2022-09-30T02:23:00;8.80;99.90
15083;DHT22;7640;53.116;6.878;2022-09-30T02:25:34;8.80;99.90
15083;DHT22;7640;53.116;6.878;2022-09-30T02:28:09;8.70;99.90
15083;DHT22;7640;53.116;6.878;2022-09-30T02:30:42;8.70;99.90
15083;DHT22;7640;53.116;6.878;2022-09-30T02:33:18;8.70;99.90
15083;DHT22;7640;53.116;6.878;2022-09-30T02:35:51;8.70;99.90
15083;DHT22;7640;53.116;6.878;2022-09-30T02:38:27;8.60;99.90
15083;DHT22;7640;53.116;6.878;2022-09-30T02:41:06;8.60;99.90
15083;DHT22;7640;53.116;6.878;2022-09-30T02:43:36;8.10;99.90
15083;DHT22;7640;53.116;6.878;2022-09-30T02:46:10;8.60;99.90
15083;DHT22;7640;53.116;6.878;2022-09-30T02:48:51;8.60;99.90
15083;DHT22;7640;53.116;6.878;2022-09-30T02:51:28;8.60;99.90
15083;DHT22;7640;53.116;6.878;2022-09-30T02:54:09;8.50;99.90
15083;DHT22;7640;53.116;6.878;2022-09-30T02:56:49;8.50;99.90
15083;DHT22;7640;53.116;6.878;2022-09-30T02:59:19;8.50;99.90
15083;DHT22;7640;53.116;6.878;2022-09-30T03:01:48;8.50;99.90
15083;DHT22;7640;53.116;6.878;2022-09-30T03:04:21;8.50;99.90
15083;DHT22;7640;53.116;6.878;2022-09-30T03:06:52;8.50;99.90
15083;DHT22;7640;53.116;6.878;2022-09-30T03:09:23;8.50;99.90
15083;DHT22;7640;53.116;6.878;2022-09-30T03:11:57;8.40;99.90
15083;DHT22;7640;53.116;6.878;2022-09-30T03:14:44;8.40;99.90
15083;DHT22;7640;53.116;6.878;2022-09-30T03:17:28;8.40;99.90
15083;DHT22;7640;53.116;6.878;2022-09-30T03:20:19;8.30;99.90
15083;DHT22;7640;53.116;6.878;2022-09-30T03:23:13;8.30;99.90
15083;DHT22;7640;53.116;6.878;2022-09-30T03:25:52;8.30;99.90
15083;DHT22;7640;53.116;6.878;2022-09-30T03:28:29;8.20;99.90
15083;DHT22;7640;53.116;6.878;2022-09-30T03:31:04;8.20;99.90
15083;DHT22;7640;53.116;6.878;2022-09-30T03:33:42;8.20;99.90
15083;DHT22;7640;53.116;6.878;2022-09-30T03:36:25;8.20;99.90
15083;DHT22;7640;53.116;6.878;2022-09-30T03:39:00;8.10;99.90
15083;DHT22;7640;53.116;6.878;2022-09-30T03:41:36;8.10;99.90
15083;DHT22;7640;53.116;6.878;2022-09-30T03:44:13;8.10;99.90
15083;DHT22;7640;53.116;6.878;2022-09-30T03:46:46;8.00;99.90
15083;DHT22;7640;53.116;6.878;2022-09-30T03:49:20;8.00;99.90
15083;DHT22;7640;53.116;6.878;2022-09-30T03:51:52;8.00;99.90
15083;DHT22;7640;53.116;6.878;2022-09-30T03:54:25;8.00;99.90
15083;DHT22;7640;53.116;6.878;2022-09-30T03:56:53;7.90;99.90
15083;DHT22;7640;53.116;6.878;2022-09-30T03:59:24;7.90;99.90
15083;DHT22;7640;53.116;6.878;2022-09-30T04:01:54;7.90;99.90
15083;DHT22;7640;53.116;6.878;2022-09-30T04:04:23;7.90;99.90
15083;DHT22;7640;53.116;6.878;2022-09-30T04:06:53;7.80;99.90
15083;DHT22;7640;53.116;6.878;2022-09-30T04:09:21;7.80;99.90
15083;DHT22;7640;53.116;6.878;2022-09-30T04:11:50;7.80;99.90
15083;DHT22;7640;53.116;6.878;2022-09-30T04:14:18;7.70;99.90
15083;DHT22;7640;53.116;6.878;2022-09-30T04:16:46;7.70;99.90
15083;DHT22;7640;53.116;6.878;2022-09-30T04:19:19;7.70;99.90
15083;DHT22;7640;53.116;6.878;2022-09-30T04:21:50;7.60;99.90
15083;DHT22;7640;53.116;6.878;2022-09-30T04:24:21;7.60;99.90
15083;DHT22;7640;53.116;6.878;2022-09-30T04:26:50;7.60;99.90
15083;DHT22;7640;53.116;6.878;2022-09-30T04:29:18;7.60;99.90
15083;DHT22;7640;53.116;6.878;2022-09-30T04:31:46;7.50;99.90
15083;DHT22;7640;53.116;6.878;2022-09-30T04:34:15;7.50;99.90
15083;DHT22;7640;53.116;6.878;2022-09-30T04:36:43;7.50;99.90
15083;DHT22;7640;53.116;6.878;2022-09-30T04:39:11;7.50;99.90
15083;DHT22;7640;53.116;6.878;2022-09-30T04:41:41;7.40;99.90
15083;DHT22;7640;53.116;6.878;2022-09-30T04:44:09;7.40;99.90
15083;DHT22;7640;53.116;6.878;2022-09-30T04:46:38;7.40;99.90
15083;DHT22;7640;53.116;6.878;2022-09-30T04:49:07;7.40;99.90
15083;DHT22;7640;53.116;6.878;2022-09-30T04:51:35;7.40;99.90
15083;DHT22;7640;53.116;6.878;2022-09-30T04:54:09;7.40;99.90
15083;DHT22;7640;53.116;6.878;2022-09-30T04:56:37;7.30;99.90
15083;DHT22;7640;53.116;6.878;2022-09-30T04:59:07;7.30;99.90
15083;DHT22;7640;53.116;6.878;2022-09-30T05:01:35;7.30;99.90
15083;DHT22;7640;53.116;6.878;2022-09-30T05:04:05;7.30;99.90
15083;DHT22;7640;53.116;6.878;2022-09-30T05:06:33;7.30;99.90
15083;DHT22;7640;53.116;6.878;2022-09-30T05:09:02;7.20;99.90
15083;DHT22;7640;53.116;6.878;2022-09-30T05:11:30;7.20;99.90
15083;DHT22;7640;53.116;6.878;2022-09-30T05:13:58;7.30;99.90
15083;DHT22;7640;53.116;6.878;2022-09-30T05:16:28;7.20;99.90
15083;DHT22;7640;53.116;6.878;2022-09-30T05:18:56;7.20;99.90
15083;DHT22;7640;53.116;6.878;2022-09-30T05:21:24;7.10;99.90
15083;DHT22;7640;53.116;6.878;2022-09-30T05:23:53;7.20;99.90
15083;DHT22;7640;53.116;6.878;2022-09-30T05:26:21;7.20;99.90
15083;DHT22;7640;53.116;6.878;2022-09-30T05:28:49;7.20;99.90
15083;DHT22;7640;53.116;6.878;2022-09-30T05:31:17;7.20;99.90
15083;DHT22;7640;53.116;6.878;2022-09-30T05:33:48;7.20;99.90
15083;DHT22;7640;53.116;6.878;2022-09-30T05:36:22;7.20;99.90
15083;DHT22;7640;53.116;6.878;2022-09-30T05:38:51;7.20;99.90
15083;DHT22;7640;53.116;6.878;2022-09-30T05:41:20;7.30;99.90
15083;DHT22;7640;53.116;6.878;2022-09-30T05:43:49;7.20;99.90
15083;DHT22;7640;53.116;6.878;2022-09-30T05:46:18;7.30;99.90
15083;DHT22;7640;53.116;6.878;2022-09-30T05:48:52;7.40;99.90
15083;DHT22;7640;53.116;6.878;2022-09-30T05:51:20;7.50;99.90
15083;DHT22;7640;53.116;6.878;2022-09-30T05:53:48;7.50;99.90
15083;DHT22;7640;53.116;6.878;2022-09-30T05:56:19;7.60;99.90
15083;DHT22;7640;53.116;6.878;2022-09-30T05:58:47;7.60;99.90
15083;DHT22;7640;53.116;6.878;2022-09-30T06:01:16;7.70;99.90
15083;DHT22;7640;53.116;6.878;2022-09-30T06:03:45;7.70;99.90
15083;DHT22;7640;53.116;6.878;2022-09-30T06:06:15;7.70;99.90
15083;DHT22;7640;53.116;6.878;2022-09-30T06:08:44;7.80;99.90
15083;DHT22;7640;53.116;6.878;2022-09-30T06:11:15;7.80;99.90
15083;DHT22;7640;53.116;6.878;2022-09-30T06:13:45;7.90;99.90
15083;DHT22;7640;53.116;6.878;2022-09-30T06:16:15;7.90;99.90
15083;DHT22;7640;53.116;6.878;2022-09-30T06:18:44;7.90;99.90
15083;DHT22;7640;53.116;6.878;2022-09-30T06:21:15;8.00;99.90
15083;DHT22;7640;53.116;6.878;2022-09-30T06:23:45;8.00;99.90
15083;DHT22;7640;53.116;6.878;2022-09-30T06:26:13;8.10;99.90
15083;DHT22;7640;53.116;6.878;2022-09-30T06:28:42;8.10;99.90
15083;DHT22;7640;53.116;6.878;2022-09-30T06:31:10;8.10;99.90
15083;DHT22;7640;53.116;6.878;2022-09-30T06:33:39;8.20;99.90
15083;DHT22;7640;53.116;6.878;2022-09-30T06:36:08;8.20;99.90
15083;DHT22;7640;53.116;6.878;2022-09-30T06:38:37;8.30;99.90
15083;DHT22;7640;53.116;6.878;2022-09-30T06:41:06;8.30;99.90
15083;DHT22;7640;53.116;6.878;2022-09-30T06:43:35;8.30;99.90
15083;DHT22;7640;53.116;6.878;2022-09-30T06:46:10;8.30;99.90
15083;DHT22;7640;53.116;6.878;2022-09-30T06:48:46;8.40;99.90
15083;DHT22;7640;53.116;6.878;2022-09-30T06:51:14;8.40;99.90
15083;DHT22;7640;53.116;6.878;2022-09-30T06:53:44;8.50;99.90
15083;DHT22;7640;53.116;6.878;2022-09-30T06:56:18;8.50;99.90
15083;DHT22;7640;53.116;6.878;2022-09-30T06:58:46;8.60;99.90
15083;DHT22;7640;53.116;6.878;2022-09-30T07:01:15;8.60;99.90
15083;DHT22;7640;53.116;6.878;2022-09-30T07:03:44;8.70;99.90
15083;DHT22;7640;53.116;6.878;2022-09-30T07:06:19;8.70;99.90
15083;DHT22;7640;53.116;6.878;2022-09-30T07:08:49;8.80;99.90
15083;DHT22;7640;53.116;6.878;2022-09-30T07:11:17;8.90;99.90
15083;DHT22;7640;53.116;6.878;2022-09-30T07:13:46;9.00;99.90
15083;DHT22;7640;53.116;6.878;2022-09-30T07:16:18;9.10;99.90
15083;DHT22;7640;53.116;6.878;2022-09-30T07:18:47;9.10;99.90
15083;DHT22;7640;53.116;6.878;2022-09-30T07:21:15;9.30;99.90
15083;DHT22;7640;53.116;6.878;2022-09-30T07:23:43;9.60;99.90
15083;DHT22;7640;53.116;6.878;2022-09-30T07:26:16;9.40;99.90
15083;DHT22;7640;53.116;6.878;2022-09-30T07:28:45;9.50;99.90
15083;DHT22;7640;53.116;6.878;2022-09-30T07:31:16;9.50;99.90
15083;DHT22;7640;53.116;6.878;2022-09-30T07:33:59;9.70;99.90
15083;DHT22;7640;53.116;6.878;2022-09-30T07:36:27;9.80;99.90
15083;DHT22;7640;53.116;6.878;2022-09-30T07:39:01;9.90;99.90
15083;DHT22;7640;53.116;6.878;2022-09-30T07:41:36;10.00;99.90
15083;DHT22;7640;53.116;6.878;2022-09-30T07:44:08;10.00;99.90
15083;DHT22;7640;53.116;6.878;2022-09-30T07:46:39;10.10;99.90
15083;DHT22;7640;53.116;6.878;2022-09-30T07:49:12;10.20;99.90
15083;DHT22;7640;53.116;6.878;2022-09-30T07:51:42;10.30;99.90
15083;DHT22;7640;53.116;6.878;2022-09-30T07:54:13;10.40;99.90
15083;DHT22;7640;53.116;6.878;2022-09-30T07:56:43;10.50;99.90
15083;DHT22;7640;53.116;6.878;2022-09-30T07:59:34;10.50;99.90
15083;DHT22;7640;53.116;6.878;2022-09-30T08:02:03;10.60;99.90
15083;DHT22;7640;53.116;6.878;2022-09-30T08:04:32;10.70;99.90
15083;DHT22;7640;53.116;6.878;2022-09-30T08:07:03;10.80;99.90
15083;DHT22;7640;53.116;6.878;2022-09-30T08:09:31;10.90;99.90
15083;DHT22;7640;53.116;6.878;2022-09-30T08:12:03;11.00;99.90
15083;DHT22;7640;53.116;6.878;2022-09-30T08:14:31;11.10;99.90
15083;DHT22;7640;53.116;6.878;2022-09-30T08:16:59;11.20;99.90
15083;DHT22;7640;53.116;6.878;2022-09-30T08:19:29;11.20;99.90
15083;DHT22;7640;53.116;6.878;2022-09-30T08:21:59;11.30;99.90
15083;DHT22;7640;53.116;6.878;2022-09-30T08:24:28;11.40;99.90
15083;DHT22;7640;53.116;6.878;2022-09-30T08:26:57;11.50;99.90
15083;DHT22;7640;53.116;6.878;2022-09-30T08:29:27;11.60;99.90
15083;DHT22;7640;53.116;6.878;2022-09-30T08:32:15;11.70;99.90
15083;DHT22;7640;53.116;6.878;2022-09-30T08:34:43;11.70;99.90
15083;DHT22;7640;53.116;6.878;2022-09-30T08:37:11;11.80;99.90
15083;DHT22;7640;53.116;6.878;2022-09-30T08:39:40;11.90;99.90
15083;DHT22;7640;53.116;6.878;2022-09-30T08:42:21;12.10;99.90
15083;DHT22;7640;53.116;6.878;2022-09-30T08:45:15;12.10;99.90
15083;DHT22;7640;53.116;6.878;2022-09-30T08:47:52;12.30;99.90
15083;DHT22;7640;53.116;6.878;2022-09-30T08:50:31;12.30;99.90
15083;DHT22;7640;53.116;6.878;2022-09-30T08:53:10;12.40;99.90
15083;DHT22;7640;53.116;6.878;2022-09-30T08:55:45;12.50;99.90
15083;DHT22;7640;53.116;6.878;2022-09-30T08:58:18;12.60;99.90
15083;DHT22;7640;53.116;6.878;2022-09-30T09:00:55;12.80;99.90
15083;DHT22;7640;53.116;6.878;2022-09-30T09:03:28;12.90;99.90
15083;DHT22;7640;53.116;6.878;2022-09-30T09:06:07;13.00;99.90
15083;DHT22;7640;53.116;6.878;2022-09-30T09:08:57;13.10;99.90
15083;DHT22;7640;53.116;6.878;2022-09-30T09:11:47;13.20;99.90
15083;DHT22;7640;53.116;6.878;2022-09-30T09:14:30;13.40;99.90
15083;DHT22;7640;53.116;6.878;2022-09-30T09:17:14;13.50;99.90
15083;DHT22;7640;53.116;6.878;2022-09-30T09:19:56;13.50;99.90
15083;DHT22;7640;53.116;6.878;2022-09-30T09:22:29;13.60;99.90
15083;DHT22;7640;53.116;6.878;2022-09-30T09:24:59;13.70;99.90
15083;DHT22;7640;53.116;6.878;2022-09-30T09:27:36;13.80;99.90
15083;DHT22;7640;53.116;6.878;2022-09-30T09:30:13;13.90;99.90
15083;DHT22;7640;53.116;6.878;2022-09-30T09:32:49;14.00;99.90
15083;DHT22;7640;53.116;6.878;2022-09-30T09:35:28;14.10;99.90
15083;DHT22;7640;53.116;6.878;2022-09-30T09:38:11;14.20;99.90
15083;DHT22;7640;53.116;6.878;2022-09-30T09:41:03;14.20;99.90
15083;DHT22;7640;53.116;6.878;2022-09-30T09:43:53;14.30;99.90
15083;DHT22;7640;53.116;6.878;2022-09-30T09:46:28;14.30;99.90
15083;DHT22;7640;53.116;6.878;2022-09-30T09:49:30;14.40;99.90
15083;DHT22;7640;53.116;6.878;2022-09-30T09:52:37;14.60;99.90
15083;DHT22;7640;53.116;6.878;2022-09-30T09:55:18;14.60;99.90
15083;DHT22;7640;53.116;6.878;2022-09-30T09:58:04;14.70;99.90
15083;DHT22;7640;53.116;6.878;2022-09-30T10:00:33;14.70;99.90
15083;DHT22;7640;53.116;6.878;2022-09-30T10:03:25;14.80;99.90
15083;DHT22;7640;53.116;6.878;2022-09-30T10:06:04;14.90;99.90
15083;DHT22;7640;53.116;6.878;2022-09-30T10:08:36;14.90;99.90
15083;DHT22;7640;53.116;6.878;2022-09-30T10:11:06;14.90;99.90
15083;DHT22;7640;53.116;6.878;2022-09-30T10:13:45;15.00;99.90
15083;DHT22;7640;53.116;6.878;2022-09-30T10:16:27;15.00;99.90
15083;DHT22;7640;53.116;6.878;2022-09-30T10:18:58;15.10;99.90
15083;DHT22;7640;53.116;6.878;2022-09-30T10:21:33;15.30;99.90
15083;DHT22;7640;53.116;6.878;2022-09-30T10:24:18;15.30;99.90
15083;DHT22;7640;53.116;6.878;2022-09-30T10:26:50;15.40;99.90
15083;DHT22;7640;53.116;6.878;2022-09-30T10:29:25;15.40;99.90
15083;DHT22;7640;53.116;6.878;2022-09-30T10:31:56;15.50;99.90
15083;DHT22;7640;53.116;6.878;2022-09-30T10:34:27;15.50;99.90
15083;DHT22;7640;53.116;6.878;2022-09-30T10:37:01;15.60;99.90
15083;DHT22;7640;53.116;6.878;2022-09-30T10:39:36;15.60;99.90
15083;DHT22;7640;53.116;6.878;2022-09-30T10:42:08;15.70;99.90
15083;DHT22;7640;53.116;6.878;2022-09-30T10:44:46;15.80;99.90
15083;DHT22;7640;53.116;6.878;2022-09-30T10:47:17;15.90;99.90
15083;DHT22;7640;53.116;6.878;2022-09-30T10:49:49;16.00;99.90
15083;DHT22;7640;53.116;6.878;2022-09-30T10:52:22;16.10;99.90
15083;DHT22;7640;53.116;6.878;2022-09-30T10:54:52;16.20;99.90
15083;DHT22;7640;53.116;6.878;2022-09-30T10:57:24;16.30;99.90
15083;DHT22;7640;53.116;6.878;2022-09-30T10:59:57;16.40;99.90
15083;DHT22;7640;53.116;6.878;2022-09-30T11:02:30;16.50;99.90
15083;DHT22;7640;53.116;6.878;2022-09-30T11:05:07;16.60;99.90
15083;DHT22;7640;53.116;6.878;2022-09-30T11:07:43;16.70;99.90
15083;DHT22;7640;53.116;6.878;2022-09-30T11:10:25;16.70;99.90
15083;DHT22;7640;53.116;6.878;2022-09-30T11:13:03;16.70;99.90
15083;DHT22;7640;53.116;6.878;2022-09-30T11:15:41;16.70;99.90
15083;DHT22;7640;53.116;6.878;2022-09-30T11:18:17;16.70;99.90
15083;DHT22;7640;53.116;6.878;2022-09-30T11:20:54;16.70;99.90
15083;DHT22;7640;53.116;6.878;2022-09-30T11:23:29;16.70;99.90
15083;DHT22;7640;53.116;6.878;2022-09-30T11:26:03;16.80;99.90
15083;DHT22;7640;53.116;6.878;2022-09-30T11:28:44;17.00;99.90
15083;DHT22;7640;53.116;6.878;2022-09-30T11:31:29;17.00;99.90
15083;DHT22;7640;53.116;6.878;2022-09-30T11:34:11;17.00;99.90
15083;DHT22;7640;53.116;6.878;2022-09-30T11:36:51;16.90;99.90
15083;DHT22;7640;53.116;6.878;2022-09-30T11:39:47;16.80;99.90
15083;DHT22;7640;53.116;6.878;2022-09-30T11:42:32;16.90;99.90
15083;DHT22;7640;53.116;6.878;2022-09-30T11:45:11;17.00;99.90
15083;DHT22;7640;53.116;6.878;2022-09-30T11:48:01;17.10;99.90
15083;DHT22;7640;53.116;6.878;2022-09-30T11:50:49;17.30;99.90
15083;DHT22;7640;53.116;6.878;2022-09-30T11:53:30;17.40;99.90
15083;DHT22;7640;53.116;6.878;2022-09-30T11:56:14;17.40;99.90
15083;DHT22;7640;53.116;6.878;2022-09-30T11:58:55;17.50;99.90
15083;DHT22;7640;53.116;6.878;2022-09-30T12:01:28;17.70;99.90
15083;DHT22;7640;53.116;6.878;2022-09-30T12:04:03;18.10;99.90
15083;DHT22;7640;53.116;6.878;2022-09-30T12:06:36;18.40;99.90
15083;DHT22;7640;53.116;6.878;2022-09-30T12:09:14;18.50;99.90
15083;DHT22;7640;53.116;6.878;2022-09-30T12:11:50;18.70;99.90
15083;DHT22;7640;53.116;6.878;2022-09-30T12:14:27;19.20;99.90
15083;DHT22;7640;53.116;6.878;2022-09-30T12:16:59;19.40;99.90
15083;DHT22;7640;53.116;6.878;2022-09-30T12:19:33;19.60;99.90
15083;DHT22;7640;53.116;6.878;2022-09-30T12:22:07;19.70;99.90
15083;DHT22;7640;53.116;6.878;2022-09-30T12:24:41;19.60;99.90
15083;DHT22;7640;53.116;6.878;2022-09-30T12:27:17;19.60;99.90
15083;DHT22;7640;53.116;6.878;2022-09-30T12:29:55;19.70;99.90
15083;DHT22;7640;53.116;6.878;2022-09-30T12:33:13;19.80;99.90
15083;DHT22;7640;53.116;6.878;2022-09-30T12:39:32;20.00;99.90
15083;DHT22;7640;53.116;6.878;2022-09-30T12:42:31;19.90;99.90
15083;DHT22;7640;53.116;6.878;2022-09-30T12:45:44;20.10;99.90
15083;DHT22;7640;53.116;6.878;2022-09-30T12:48:34;20.50;99.90
15083;DHT22;7640;53.116;6.878;2022-09-30T12:51:05;21.10;99.90
15083;DHT22;7640;53.116;6.878;2022-09-30T12:53:36;21.20;99.90
15083;DHT22;7640;53.116;6.878;2022-09-30T12:56:07;21.10;99.90
15083;DHT22;7640;53.116;6.878;2022-09-30T12:58:49;20.80;99.90
15083;DHT22;7640;53.116;6.878;2022-09-30T13:01:22;20.70;99.90
15083;DHT22;7640;53.116;6.878;2022-09-30T13:04:13;20.80;99.90
15083;DHT22;7640;53.116;6.878;2022-09-30T13:07:07;21.10;99.90
15083;DHT22;7640;53.116;6.878;2022-09-30T13:13:18;21.70;99.90
15083;DHT22;7640;53.116;6.878;2022-09-30T13:15:52;21.50;99.90
15083;DHT22;7640;53.116;6.878;2022-09-30T13:19:00;21.10;99.90
15083;DHT22;7640;53.116;6.878;2022-09-30T13:21:28;20.80;99.90
15083;DHT22;7640;53.116;6.878;2022-09-30T13:23:59;20.40;99.90
15083;DHT22;7640;53.116;6.878;2022-09-30T13:26:38;20.30;99.90
15083;DHT22;7640;53.116;6.878;2022-09-30T13:29:32;20.30;99.90
15083;DHT22;7640;53.116;6.878;2022-09-30T13:32:07;20.20;99.90
15083;DHT22;7640;53.116;6.878;2022-09-30T13:34:54;20.10;99.90
15083;DHT22;7640;53.116;6.878;2022-09-30T13:37:35;20.10;99.90
15083;DHT22;7640;53.116;6.878;2022-09-30T13:40:17;19.90;99.90
15083;DHT22;7640;53.116;6.878;2022-09-30T13:43:09;19.80;99.90
15083;DHT22;7640;53.116;6.878;2022-09-30T13:45:42;19.70;99.90
15083;DHT22;7640;53.116;6.878;2022-09-30T13:48:16;19.70;99.90
15083;DHT22;7640;53.116;6.878;2022-09-30T13:50:48;19.80;99.90
15083;DHT22;7640;53.116;6.878;2022-09-30T13:53:26;19.70;99.90
15083;DHT22;7640;53.116;6.878;2022-09-30T13:55:58;19.60;99.90
15083;DHT22;7640;53.116;6.878;2022-09-30T14:02:01;19.50;99.90
15083;DHT22;7640;53.116;6.878;2022-09-30T14:04:57;19.50;99.90
15083;DHT22;7640;53.116;6.878;2022-09-30T14:07:42;19.40;99.90
15083;DHT22;7640;53.116;6.878;2022-09-30T14:10:32;19.30;99.90
15083;DHT22;7640;53.116;6.878;2022-09-30T14:13:18;19.30;99.90
15083;DHT22;7640;53.116;6.878;2022-09-30T14:16:04;19.50;99.90
15083;DHT22;7640;53.116;6.878;2022-09-30T14:19:01;19.60;99.90
15083;DHT22;7640;53.116;6.878;2022-09-30T14:21:43;19.50;99.90
15083;DHT22;7640;53.116;6.878;2022-09-30T14:24:15;19.30;99.90
15083;DHT22;7640;53.116;6.878;2022-09-30T14:27:10;18.90;99.90
15083;DHT22;7640;53.116;6.878;2022-09-30T14:29:52;19.20;99.90
15083;DHT22;7640;53.116;6.878;2022-09-30T14:32:29;19.10;99.90
15083;DHT22;7640;53.116;6.878;2022-09-30T14:34:59;19.00;99.90
15083;DHT22;7640;53.116;6.878;2022-09-30T14:37:37;18.90;99.90
15083;DHT22;7640;53.116;6.878;2022-09-30T14:40:08;18.80;99.90
15083;DHT22;7640;53.116;6.878;2022-09-30T14:42:41;18.70;99.90
15083;DHT22;7640;53.116;6.878;2022-09-30T14:45:17;18.80;99.90
15083;DHT22;7640;53.116;6.878;2022-09-30T14:47:49;18.80;99.90
15083;DHT22;7640;53.116;6.878;2022-09-30T14:50:21;18.80;99.90
15083;DHT22;7640;53.116;6.878;2022-09-30T14:52:53;18.70;99.90
15083;DHT22;7640;53.116;6.878;2022-09-30T14:55:27;18.80;99.90
15083;DHT22;7640;53.116;6.878;2022-09-30T14:58:19;18.70;99.90
15083;DHT22;7640;53.116;6.878;2022-09-30T15:01:03;18.60;99.90
15083;DHT22;7640;53.116;6.878;2022-09-30T15:03:34;18.60;99.90
15083;DHT22;7640;53.116;6.878;2022-09-30T15:06:04;18.60;99.90
15083;DHT22;7640;53.116;6.878;2022-09-30T15:08:35;18.60;99.90
15083;DHT22;7640;53.116;6.878;2022-09-30T15:11:03;18.60;99.90
15083;DHT22;7640;53.116;6.878;2022-09-30T15:13:32;18.60;99.90
15083;DHT22;7640;53.116;6.878;2022-09-30T15:16:01;18.50;99.90
15083;DHT22;7640;53.116;6.878;2022-09-30T15:18:31;18.50;99.90
15083;DHT22;7640;53.116;6.878;2022-09-30T15:21:08;18.50;99.90
15083;DHT22;7640;53.116;6.878;2022-09-30T15:23:41;18.50;99.90
15083;DHT22;7640;53.116;6.878;2022-09-30T15:26:13;18.40;99.90
15083;DHT22;7640;53.116;6.878;2022-09-30T15:28:41;18.50;99.90
15083;DHT22;7640;53.116;6.878;2022-09-30T15:31:19;18.60;99.90
15083;DHT22;7640;53.116;6.878;2022-09-30T15:34:02;18.90;99.90
15083;DHT22;7640;53.116;6.878;2022-09-30T15:36:33;19.30;99.90
15083;DHT22;7640;53.116;6.878;2022-09-30T15:39:05;19.70;99.90
15083;DHT22;7640;53.116;6.878;2022-09-30T15:41:39;20.00;99.90
15083;DHT22;7640;53.116;6.878;2022-09-30T15:44:16;20.20;99.90
15083;DHT22;7640;53.116;6.878;2022-09-30T15:47:01;20.40;99.90
15083;DHT22;7640;53.116;6.878;2022-09-30T15:49:31;20.50;99.90
15083;DHT22;7640;53.116;6.878;2022-09-30T15:52:26;20.30;99.90
15083;DHT22;7640;53.116;6.878;2022-09-30T15:55:34;20.10;99.90
15083;DHT22;7640;53.116;6.878;2022-09-30T15:58:33;19.90;99.90
15083;DHT22;7640;53.116;6.878;2022-09-30T16:01:12;19.70;99.90
15083;DHT22;7640;53.116;6.878;2022-09-30T16:03:48;19.60;99.90
15083;DHT22;7640;53.116;6.878;2022-09-30T16:06:23;19.50;99.90
15083;DHT22;7640;53.116;6.878;2022-09-30T16:08:55;19.20;99.90
15083;DHT22;7640;53.116;6.878;2022-09-30T16:11:31;18.90;99.90
15083;DHT22;7640;53.116;6.878;2022-09-30T16:14:04;18.60;99.90
15083;DHT22;7640;53.116;6.878;2022-09-30T16:16:36;18.30;99.90
15083;DHT22;7640;53.116;6.878;2022-09-30T16:19:05;18.00;99.90
15083;DHT22;7640;53.116;6.878;2022-09-30T16:21:44;17.80;99.90
15083;DHT22;7640;53.116;6.878;2022-09-30T16:24:47;17.60;99.90
15083;DHT22;7640;53.116;6.878;2022-09-30T16:27:27;17.40;99.90
15083;DHT22;7640;53.116;6.878;2022-09-30T16:29:58;17.20;99.90
15083;DHT22;7640;53.116;6.878;2022-09-30T16:32:29;17.10;99.90
15083;DHT22;7640;53.116;6.878;2022-09-30T16:34:59;16.90;99.90
15083;DHT22;7640;53.116;6.878;2022-09-30T16:37:28;16.80;99.90
15083;DHT22;7640;53.116;6.878;2022-09-30T16:40:05;16.80;99.90
15083;DHT22;7640;53.116;6.878;2022-09-30T16:42:44;16.70;99.90
15083;DHT22;7640;53.116;6.878;2022-09-30T16:45:12;16.60;99.90
15083;DHT22;7640;53.116;6.878;2022-09-30T16:47:42;16.50;99.90
15083;DHT22;7640;53.116;6.878;2022-09-30T16:50:16;16.40;99.90
15083;DHT22;7640;53.116;6.878;2022-09-30T16:52:50;16.30;99.90
15083;DHT22;7640;53.116;6.878;2022-09-30T16:55:18;16.20;99.90
15083;DHT22;7640;53.116;6.878;2022-09-30T16:57:48;16.10;99.90